Peoga, Indiana
Current Conditions -  °F | °C
As of 12:55 PM on Friday 21 Nov 2014 (Local Time) from K1II Reporting Station
Clear Clear  
Wind Chill: 25°   Ceiling: Unl
Heat Index: 32°   Visibility: 10mi
Dew Point: 10°   Wind: 8mph
Humidity: 41%   Direction: 140°SE
Pressure: 30.48"   Gusts: NA
Location:  39.3709°N, 86.1938°W
Report Text: K1II 211755Z AUTO 14007KT 10SM CLR 00/M12 A3048 RMK AO2
Loading
Personal Weather Stations






























Interactive Weather Map New forecast layout! Learn more

10-Day Weather Forecast

Advertisements
Track Severe Weather on mobile